Time;durP1;ratioP1;P1;durP2;ratioP2;P2;SDS_P1;SDS_P2;PMS_P1;PMS_P2;Temp;Humidity;BMP_temperature;BMP_pressure;BME280_temperature;BME280_humidity;BME280_pressure;Samples;Min_cycle;Max_cycle;Signal;HPM_P1;HPM_P2
2024/02/27 00:00:11;;;;;;;1.30;1.08;;;;;;;5.65;100.00;91923.94;2115820;27;20083;-80
2024/02/27 00:01:12;;;;;;;1.40;1.30;;;;;;;5.71;100.00;91937.47;2123993;27;20478;-81
2024/02/27 00:02:13;;;;;;;1.60;1.30;;;;;;;5.71;100.00;91934.81;2123970;27;20055;-80
2024/02/27 00:03:14;;;;;;;1.00;1.00;;;;;;;5.60;100.00;91936.97;2124045;27;20027;-82
2024/02/27 00:04:15;;;;;;;1.85;1.10;;;;;;;5.69;100.00;91947.75;2115610;28;20024;-81
2024/02/27 00:05:16;;;;;;;1.17;1.17;;;;;;;5.73;100.00;91948.41;2107197;28;20043;-82
2024/02/27 00:06:17;;;;;;;1.35;1.20;;;;;;;5.75;100.00;91949.50;2124036;27;20076;-80
2024/02/27 00:07:19;;;;;;;1.15;1.10;;;;;;;5.79;100.00;91946.75;2121592;27;20556;-80
2024/02/27 00:08:20;;;;;;;1.60;1.30;;;;;;;5.72;100.00;91941.63;2120356;27;20463;-81
2024/02/27 00:09:24;;;;;;;1.27;1.27;;;;;;;5.72;100.00;91939.72;2115490;28;20023;-80
2024/02/27 00:10:26;;;;;;;1.50;1.40;;;;;;;5.74;100.00;91945.34;2115415;28;20055;-80
2024/02/27 00:11:28;;;;;;;1.30;1.20;;;;;;;5.63;100.00;91938.78;2102989;27;20083;-79
2024/02/27 00:12:29;;;;;;;1.30;1.20;;;;;;;5.68;100.00;91944.34;2112279;27;20015;-80
2024/02/27 00:13:30;;;;;;;1.20;1.10;;;;;;;5.66;100.00;91954.59;2082155;28;20024;-80
2024/02/27 00:14:31;;;;;;;1.13;1.10;;;;;;;5.63;100.00;91957.34;2063632;27;20027;-80
2024/02/27 00:15:32;;;;;;;1.27;1.17;;;;;;;5.66;100.00;91951.22;2056329;28;20104;-80
2024/02/27 00:16:33;;;;;;;2.28;1.30;;;;;;;5.69;100.00;91958.34;2058818;28;20034;-80
2024/02/27 00:17:34;;;;;;;1.20;1.10;;;;;;;5.67;100.00;91966.72;2059206;28;20028;-80
2024/02/27 00:18:35;;;;;;;1.50;1.40;;;;;;;5.71;100.00;91964.00;2074921;28;20031;-79
2024/02/27 00:19:36;;;;;;;1.00;1.00;;;;;;;5.71;100.00;91959.44;2079124;28;20099;-80
2024/02/27 00:20:37;;;;;;;1.30;1.20;;;;;;;5.67;100.00;91963.31;2072815;28;20028;-81
2024/02/27 00:21:45;;;;;;;1.30;1.20;;;;;;;5.72;100.00;91962.81;2088098;28;20554;-80
2024/02/27 00:22:45;;;;;;;2.55;1.50;;;;;;;5.65;100.00;91974.31;2091696;28;20035;-80
2024/02/27 00:23:46;;;;;;;1.10;1.08;;;;;;;5.62;100.00;91969.88;2089727;28;20028;-80
2024/02/27 00:24:47;;;;;;;1.60;1.50;;;;;;;5.62;100.00;91971.75;2110821;27;20492;-82
2024/02/27 00:25:48;;;;;;;1.15;1.10;;;;;;;5.65;100.00;91973.56;2115415;28;20514;-80
2024/02/27 00:26:49;;;;;;;1.20;1.10;;;;;;;5.75;100.00;91973.34;2115209;28;20507;-81
2024/02/27 00:27:50;;;;;;;1.30;1.20;;;;;;;5.72;100.00;91979.47;2115244;28;20023;-80
2024/02/27 00:28:51;;;;;;;1.42;1.17;;;;;;;5.78;100.00;91966.47;2123761;27;20539;-81
2024/02/27 00:29:53;;;;;;;1.25;1.15;;;;;;;5.78;100.00;91966.47;2124320;27;20106;-80
2024/02/27 00:30:54;;;;;;;1.30;1.20;;;;;;;5.68;100.00;91965.56;2124345;27;20050;-81
2024/02/27 00:31:55;;;;;;;1.30;1.20;;;;;;;5.75;100.00;91964.63;2123920;27;20831;-81
2024/02/27 00:32:56;;;;;;;1.25;1.15;;;;;;;5.75;100.00;91964.63;2115276;28;20078;-82
2024/02/27 00:33:57;;;;;;;1.30;1.20;;;;;;;5.65;100.00;91961.06;2106742;28;20020;-80
2024/02/27 00:34:58;;;;;;;1.15;1.10;;;;;;;5.55;100.00;91962.78;2106855;28;20040;-80
2024/02/27 00:36:02;;;;;;;0.90;0.90;;;;;;;5.62;100.00;91969.09;2115311;28;20113;-80
2024/02/27 00:37:03;;;;;;;1.42;1.33;;;;;;;5.58;100.00;91973.75;2107200;28;20019;-80
2024/02/27 00:38:04;;;;;;;1.33;1.23;;;;;;;5.56;100.00;91972.22;2115362;27;20078;-81
2024/02/27 00:39:05;;;;;;;1.10;1.10;;;;;;;5.54;100.00;91965.88;2116315;28;20031;-80
2024/02/27 00:40:06;;;;;;;1.30;1.20;;;;;;;5.53;100.00;91972.31;2115893;27;20044;-80
2024/02/27 00:41:07;;;;;;;1.25;1.15;;;;;;;5.65;100.00;91976.97;2108340;28;20119;-81
2024/02/27 00:42:12;;;;;;;1.30;1.20;;;;;;;5.68;100.00;91978.06;2035705;28;20037;-80
2024/02/27 00:43:13;;;;;;;1.52;1.17;;;;;;;5.63;100.00;91981.94;2038655;28;22825;-79
2024/02/27 00:44:14;;;;;;;1.05;1.05;;;;;;;5.59;100.00;91972.59;2066344;28;20032;-79
2024/02/27 00:45:15;;;;;;;2.00;1.30;;;;;;;5.61;100.00;91978.22;2014436;27;20051;-80
2024/02/27 00:46:16;;;;;;;1.30;1.10;;;;;;;5.53;100.00;91977.59;2039825;28;20158;-79
2024/02/27 00:47:17;;;;;;;1.48;1.30;;;;;;;5.47;100.00;91973.97;2016724;27;20138;-80
2024/02/27 00:48:18;;;;;;;1.40;1.30;;;;;;;5.56;100.00;91966.19;2024888;27;20034;-81
2024/02/27 00:49:19;;;;;;;2.67;1.10;;;;;;;5.60;100.00;91971.41;2060518;28;20070;-80
2024/02/27 00:50:20;;;;;;;2.03;1.45;;;;;;;5.53;100.00;91967.78;2079782;28;20020;-80
2024/02/27 00:51:21;;;;;;;1.40;1.30;;;;;;;5.53;100.00;91970.44;2084413;28;20159;-80
2024/02/27 00:52:23;;;;;;;1.30;1.20;;;;;;;5.62;100.00;91969.88;2094157;28;20043;-81
2024/02/27 00:53:24;;;;;;;1.63;1.50;;;;;;;5.56;100.00;91972.22;2097168;27;20028;-80
2024/02/27 00:54:25;;;;;;;1.35;1.25;;;;;;;5.52;100.00;91965.53;2101099;27;20022;-81
2024/02/27 00:55:26;;;;;;;1.40;1.30;;;;;;;5.55;100.00;91968.09;2095994;27;20019;-80
2024/02/27 00:56:27;;;;;;;1.35;1.25;;;;;;;5.60;100.00;91971.41;2092654;27;20041;-80
2024/02/27 00:57:30;;;;;;;1.60;1.50;;;;;;;5.58;100.00;91965.78;2099419;27;20019;-80
2024/02/27 00:58:31;;;;;;;1.40;1.30;;;;;;;5.61;100.00;91968.34;2087552;27;20031;-80
2024/02/27 00:59:32;;;;;;;1.42;1.33;;;;;;;5.55;100.00;91962.78;2023958;27;20020;-80
2024/02/27 01:00:33;;;;;;;1.20;1.20;;;;;;;5.59;100.00;91965.38;1969055;28;21583;-80
2024/02/27 01:01:34;;;;;;;1.30;1.20;;;;;;;5.65;100.00;91970.94;1968227;28;20028;-80
2024/02/27 01:02:36;;;;;;;1.10;1.10;;;;;;;5.67;100.00;91973.94;1952553;28;20024;-80
2024/02/27 01:03:38;;;;;;;1.40;1.30;;;;;;;5.68;100.00;91968.19;1882440;27;22272;-80
2024/02/27 01:04:39;;;;;;;1.10;1.10;;;;;;;5.62;100.00;91977.81;1917386;27;20125;-79
2024/02/27 01:05:40;;;;;;;1.58;1.40;;;;;;;5.58;100.00;91976.41;1929201;27;23796;-80
2024/02/27 01:06:42;;;;;;;1.38;1.27;;;;;;;5.53;100.00;91973.06;1870832;27;23100;-80
2024/02/27 01:07:44;;;;;;;1.17;1.10;;;;;;;5.53;100.00;91967.78;1834027;27;20031;-80
2024/02/27 01:08:45;;;;;;;1.35;1.25;;;;;;;5.64;100.00;91967.53;2013190;27;20028;-81
2024/02/27 01:09:46;;;;;;;1.23;1.15;;;;;;;5.78;100.00;91963.81;2085498;27;20122;-80
2024/02/27 01:10:47;;;;;;;1.10;1.10;;;;;;;5.63;100.00;91966.03;2106341;27;21111;-81
2024/02/27 01:11:48;;;;;;;1.10;1.10;;;;;;;5.64;100.00;91956.19;2066437;27;20038;-80
2024/02/27 01:12:49;;;;;;;1.50;1.40;;;;;;;5.72;100.00;91960.19;2068624;27;20153;-81
2024/02/27 01:13:50;;;;;;;1.15;1.05;;;;;;;5.67;100.00;91960.66;2101251;27;20019;-80
2024/02/27 01:14:51;;;;;;;1.45;1.20;;;;;;;5.63;100.00;91954.69;2095964;27;20106;-80
2024/02/27 01:15:52;;;;;;;1.33;1.23;;;;;;;5.69;100.00;91950.38;2107950;27;20479;-81
2024/02/27 01:16:53;;;;;;;1.45;1.35;;;;;;;5.71;100.00;91956.03;2059319;27;20046;-80
2024/02/27 01:17:54;;;;;;;1.38;1.27;;;;;;;5.63;100.00;91965.31;2065865;27;20051;-80
2024/02/27 01:18:55;;;;;;;1.30;1.17;;;;;;;5.66;100.00;91961.81;2071889;27;20547;-80
2024/02/27 01:19:56;;;;;;;1.20;1.10;;;;;;;5.60;100.00;91968.78;2068309;28;20027;-80
2024/02/27 01:20:58;;;;;;;1.92;1.10;;;;;;;5.59;100.00;91978.63;2065889;27;20027;-80
2024/02/27 01:22:02;;;;;;;1.13;1.13;;;;;;;5.56;100.00;91974.88;2066599;28;20466;-80
2024/02/27 01:23:03;;;;;;;1.20;1.10;;;;;;;5.58;100.00;91971.09;2077000;28;20039;-81
2024/02/27 01:24:10;;;;;;;1.20;1.10;;;;;;;5.60;100.00;91971.41;2080842;28;20024;-79
2024/02/27 01:25:12;;;;;;;0.93;0.93;;;;;;;5.58;100.00;91968.44;2086437;27;20213;-79
2024/02/27 01:26:15;;;;;;;1.00;1.00;;;;;;;5.67;100.00;91976.56;2096247;27;20055;-79
2024/02/27 01:27:16;;;;;;;1.55;0.98;;;;;;;5.62;100.00;91971.75;2097315;28;20432;-80
2024/02/27 01:28:17;;;;;;;1.40;1.30;;;;;;;5.71;100.00;91971.94;2098024;28;20123;-80
2024/02/27 01:29:18;;;;;;;1.48;1.17;;;;;;;5.69;100.00;91967.03;2104820;28;21441;-81
2024/02/27 01:30:19;;;;;;;1.20;1.10;;;;;;;5.59;100.00;91972.59;2116274;28;20103;-80
2024/02/27 01:31:20;;;;;;;1.00;1.00;;;;;;;5.64;100.00;91964.88;2108105;28;20032;-81
2024/02/27 01:32:21;;;;;;;1.17;1.10;;;;;;;5.60;100.00;91971.41;2116287;28;20046;-81
2024/02/27 01:33:22;;;;;;;1.20;1.10;;;;;;;5.63;100.00;91975.91;2124477;27;20075;-81
2024/02/27 01:34:24;;;;;;;1.02;1.02;;;;;;;5.59;100.00;91975.22;2116003;28;20036;-80
2024/02/27 01:35:25;;;;;;;1.40;1.00;;;;;;;5.55;100.00;91977.97;2107889;28;20024;-80
2024/02/27 01:36:26;;;;;;;1.58;1.15;;;;;;;5.58;100.00;91979.06;2099460;28;20436;-80
2024/02/27 01:37:28;;;;;;;1.20;1.10;;;;;;;5.64;100.00;91977.41;2115817;28;20020;-81
2024/02/27 01:38:29;;;;;;;1.02;1.02;;;;;;;5.61;100.00;91980.84;2108357;28;20020;-80
2024/02/27 01:39:30;;;;;;;1.05;0.98;;;;;;;5.71;100.00;91977.25;2107556;28;20073;-80
2024/02/27 01:40:31;;;;;;;1.58;1.02;;;;;;;5.64;100.00;91969.44;2116073;28;20024;-80
2024/02/27 01:41:32;;;;;;;1.00;1.00;;;;;;;5.66;100.00;91973.16;2107442;28;20052;-81
2024/02/27 01:42:33;;;;;;;0.98;0.93;;;;;;;5.69;100.00;91977.63;2107653;28;20086;-80
2024/02/27 01:43:34;;;;;;;1.17;0.90;;;;;;;5.69;100.00;91969.69;2099210;28;20381;-80
2024/02/27 01:44:35;;;;;;;0.98;0.98;;;;;;;5.65;100.00;91971.66;2099169;28;20028;-79
2024/02/27 01:45:36;;;;;;;1.10;1.00;;;;;;;5.51;100.00;91964.78;2107425;28;20387;-79
2024/02/27 01:46:37;;;;;;;1.02;0.93;;;;;;;5.52;100.00;91968.16;2120517;27;20026;-80
2024/02/27 01:47:38;;;;;;;0.90;0.90;;;;;;;5.58;100.00;91969.19;2115510;28;20023;-81
2024/02/27 01:48:40;;;;;;;0.85;0.85;;;;;;;5.67;100.00;91971.28;2107227;28;20114;-80
2024/02/27 01:49:41;;;;;;;1.15;0.90;;;;;;;5.56;100.00;91969.59;2108106;28;20685;-80
2024/02/27 01:50:45;;;;;;;0.90;0.90;;;;;;;5.53;100.00;91965.13;2098466;28;20020;-79
2024/02/27 01:51:48;;;;;;;2.55;0.90;;;;;;;5.45;100.00;91968.34;2114661;27;20042;-80
2024/02/27 01:52:49;;;;;;;1.00;0.90;;;;;;;5.50;100.00;91968.59;2124255;27;20091;-80
2024/02/27 01:53:54;;;;;;;0.80;0.80;;;;;;;5.56;100.00;91969.59;2114674;28;20020;-80
2024/02/27 01:54:55;;;;;;;0.90;0.90;;;;;;;5.51;100.00;91967.44;2099021;28;20027;-79
2024/02/27 01:55:56;;;;;;;0.90;0.90;;;;;;;5.52;100.00;91960.97;2099136;28;20126;-79
2024/02/27 01:56:58;;;;;;;1.05;0.73;;;;;;;5.51;100.00;91967.44;2115559;27;20016;-80
2024/02/27 01:57:58;;;;;;;0.70;0.70;;;;;;;5.66;100.00;91962.56;2124719;27;20027;-79
2024/02/27 01:59:00;;;;;;;2.47;0.80;;;;;;;5.64;100.00;91958.84;2116098;28;20486;-79
2024/02/27 02:00:05;;;;;;;0.80;0.80;;;;;;;5.61;100.00;91964.94;2116214;28;20030;-79
2024/02/27 02:01:09;;;;;;;0.63;0.63;;;;;;;5.51;100.00;91958.72;2124291;27;20027;-80
2024/02/27 02:02:11;;;;;;;0.60;0.60;;;;;;;5.55;100.00;91970.00;2116119;28;20026;-80
2024/02/27 02:03:13;;;;;;;0.73;0.73;;;;;;;5.46;100.00;91969.81;2108057;28;20028;-80
2024/02/27 02:04:15;;;;;;;1.52;0.70;;;;;;;5.52;100.00;91976.13;2107920;28;20028;-80
2024/02/27 02:05:30;;;;;;;0.80;0.80;;;;;;;5.51;100.00;91964.78;2108169;28;20028;-80
2024/02/27 02:06:31;;;;;;;0.80;0.80;;;;;;;5.50;100.00;91975.78;2124162;27;20046;-79
2024/02/27 02:07:32;;;;;;;0.70;0.70;;;;;;;5.51;100.00;91974.63;2115977;28;20031;-80
2024/02/27 02:08:34;;;;;;;0.60;0.60;;;;;;;5.53;100.00;91974.94;2109145;28;20020;-80
2024/02/27 02:09:35;;;;;;;0.68;0.68;;;;;;;5.67;100.00;91979.22;2099783;28;20403;-79
2024/02/27 02:10:36;;;;;;;1.08;0.70;;;;;;;5.68;100.00;91965.56;2107390;28;20020;-79
2024/02/27 02:11:38;;;;;;;0.60;0.60;;;;;;;5.70;100.00;91981.78;2099667;28;20025;-80
2024/02/27 02:12:39;;;;;;;0.70;0.70;;;;;;;5.67;100.00;91971.28;2107735;28;20496;-80
2024/02/27 02:13:40;;;;;;;0.70;0.70;;;;;;;5.66;100.00;91970.50;2116036;28;20116;-79
2024/02/27 02:14:41;;;;;;;0.60;0.60;;;;;;;5.58;100.00;91966.53;2121946;27;20019;-79
2024/02/27 02:15:43;;;;;;;0.70;0.70;;;;;;;5.63;100.00;91968.69;2116268;28;20031;-80
2024/02/27 02:16:44;;;;;;;0.60;0.60;;;;;;;5.53;100.00;91965.13;2106930;28;20031;-80
2024/02/27 02:17:45;;;;;;;0.73;0.73;;;;;;;5.52;100.00;91970.81;2115552;28;20075;-79
2024/02/27 02:18:47;;;;;;;0.60;0.60;;;;;;;5.55;100.00;91973.41;2115893;28;20464;-79
2024/02/27 02:19:48;;;;;;;1.92;0.70;;;;;;;5.56;100.00;91974.88;2107949;28;20115;-80
2024/02/27 02:20:49;;;;;;;0.60;0.60;;;;;;;5.52;100.00;91981.41;2107420;28;20024;-80
2024/02/27 02:21:50;;;;;;;1.20;0.85;;;;;;;5.50;100.00;91984.50;2115967;28;20467;-81
2024/02/27 02:22:51;;;;;;;0.60;0.60;;;;;;;5.41;100.00;91981.66;2124120;27;20015;-80
2024/02/27 02:23:53;;;;;;;0.70;0.70;;;;;;;5.45;100.00;91979.69;2115989;28;20110;-80
2024/02/27 02:26:50;;;;;;;;;;;;;;;4.85;100.00;91986.91;2148282;27;20112;-81
2024/02/27 02:27:52;;;;;;;0.70;0.70;;;;;;;4.77;100.00;91988.94;2145096;27;19910;-80
2024/02/27 02:28:53;;;;;;;0.60;0.60;;;;;;;4.73;100.00;91990.91;2131006;27;20022;-81
2024/02/27 02:29:55;;;;;;;0.60;0.60;;;;;;;4.76;100.00;91998.03;2114577;27;20456;-81
2024/02/27 02:30:56;;;;;;;0.63;0.63;;;;;;;4.82;100.00;91995.66;2123252;27;20340;-82
2024/02/27 02:31:57;;;;;;;1.40;0.70;;;;;;;4.89;100.00;91994.78;2123045;27;20492;-80
2024/02/27 02:32:58;;;;;;;0.80;0.80;;;;;;;4.98;100.00;91997.66;2123302;27;20099;-80
2024/02/27 02:33:59;;;;;;;1.33;0.70;;;;;;;4.97;100.00;91988.22;2114377;28;20020;-82
2024/02/27 02:35:00;;;;;;;0.60;0.60;;;;;;;5.04;100.00;91996.75;2122931;27;20019;-81
2024/02/27 02:36:01;;;;;;;0.80;0.80;;;;;;;5.04;100.00;91993.34;2136062;27;20050;-80
2024/02/27 02:37:02;;;;;;;0.70;0.70;;;;;;;5.05;100.00;91990.31;2131126;27;20019;-81
2024/02/27 02:38:03;;;;;;;0.60;0.60;;;;;;;5.02;100.00;91987.72;2114456;28;20020;-81
2024/02/27 02:39:04;;;;;;;0.60;0.60;;;;;;;5.08;100.00;91990.66;2114387;28;20108;-81
2024/02/27 02:40:06;;;;;;;0.63;0.63;;;;;;;5.04;100.00;91985.41;2122948;27;20031;-82
2024/02/27 02:41:07;;;;;;;0.65;0.65;;;;;;;5.04;100.00;91993.34;2131245;27;20026;-80
2024/02/27 02:42:08;;;;;;;1.08;0.80;;;;;;;5.11;100.00;91992.47;2122549;28;20057;-80
2024/02/27 02:43:09;;;;;;;1.40;0.52;;;;;;;5.03;100.00;92000.56;2122802;27;20023;-81
2024/02/27 02:44:10;;;;;;;0.70;0.70;;;;;;;5.04;100.00;91994.09;2131254;27;20459;-81
2024/02/27 02:45:13;;;;;;;0.60;0.60;;;;;;;5.05;100.00;91994.88;2131317;27;20029;-81
2024/02/27 02:46:20;;;;;;;0.68;0.68;;;;;;;5.10;100.00;91993.66;2111856;28;20024;-80
2024/02/27 02:47:21;;;;;;;0.50;0.50;;;;;;;5.12;100.00;91992.06;2105334;28;20055;-80
2024/02/27 02:48:22;;;;;;;0.65;0.65;;;;;;;5.09;100.00;91994.78;2105843;28;20400;-80
2024/02/27 02:49:23;;;;;;;0.60;0.60;;;;;;;5.09;100.00;92000.06;2097252;28;20032;-81
2024/02/27 02:50:24;;;;;;;0.60;0.60;;;;;;;5.08;100.00;91998.59;2106609;28;20131;-81
2024/02/27 02:51:25;;;;;;;0.70;0.70;;;;;;;5.02;100.00;91996.41;2115229;27;20052;-80
2024/02/27 02:52:26;;;;;;;0.60;0.50;;;;;;;4.95;100.00;92001.84;2124968;27;20023;-80
2024/02/27 02:53:27;;;;;;;0.60;0.60;;;;;;;5.12;100.00;91997.38;2122271;27;20031;-80
2024/02/27 02:54:28;;;;;;;0.60;0.60;;;;;;;5.02;100.00;91998.31;2120089;28;20038;-80
2024/02/27 02:55:29;;;;;;;0.68;0.68;;;;;;;5.05;100.00;92000.16;2113896;28;20023;-80
2024/02/27 02:56:30;;;;;;;0.70;0.60;;;;;;;5.06;100.00;92001.66;2118085;27;20015;-80
2024/02/27 02:57:32;;;;;;;0.50;0.50;;;;;;;5.09;100.00;92003.47;2126987;27;20087;-82
2024/02/27 02:58:33;;;;;;;0.55;0.55;;;;;;;5.07;100.00;92011.09;2134894;27;20026;-81
2024/02/27 02:59:34;;;;;;;0.60;0.60;;;;;;;5.04;100.00;92015.28;2131837;27;20063;-79
2024/02/27 03:00:35;;;;;;;1.13;0.47;;;;;;;5.02;100.00;92011.56;2122379;28;20031;-80
2024/02/27 03:01:37;;;;;;;0.60;0.60;;;;;;;4.99;100.00;92021.06;2105890;28;20020;-81
2024/02/27 03:02:38;;;;;;;0.50;0.50;;;;;;;4.98;100.00;92022.22;2122706;27;20023;-81
2024/02/27 03:03:39;;;;;;;0.60;0.47;;;;;;;4.99;100.00;92017.66;2122285;28;20135;-82
2024/02/27 03:04:40;;;;;;;0.65;0.65;;;;;;;4.94;100.00;92015.50;2105569;28;20024;-80
2024/02/27 03:05:41;;;;;;;0.52;0.50;;;;;;;4.87;100.00;92015.63;2129131;27;20030;-81
2024/02/27 03:07:08;;;;;;;0.60;0.60;;;;;;;4.83;100.00;92013.06;2139215;27;20448;-79
2024/02/27 03:08:09;;;;;;;0.50;0.50;;;;;;;4.80;100.00;92013.84;2122195;28;20028;-80
2024/02/27 03:09:10;;;;;;;0.52;0.52;;;;;;;4.76;100.00;92010.53;2105463;28;20505;-80
2024/02/27 03:10:11;;;;;;;0.60;0.60;;;;;;;4.71;100.00;92019.69;2105532;28;20077;-80
2024/02/27 03:11:16;;;;;;;0.60;0.60;;;;;;;4.86;100.00;92012.22;2105216;28;20074;-81
2024/02/27 03:12:18;;;;;;;0.60;0.60;;;;;;;4.86;100.00;92022.81;2098097;28;20047;-81
2024/02/27 03:13:19;;;;;;;0.68;0.43;;;;;;;4.95;100.00;92024.94;2105525;28;20033;-80
2024/02/27 03:14:20;;;;;;;0.45;0.45;;;;;;;4.95;100.00;92025.66;2113663;28;20495;-79
2024/02/27 03:15:21;;;;;;;0.60;0.60;;;;;;;5.04;100.00;92022.47;2113890;28;20030;-82
2024/02/27 03:16:22;;;;;;;0.50;0.50;;;;;;;4.96;100.00;92024.53;2122180;27;20047;-80
2024/02/27 03:17:23;;;;;;;0.50;0.50;;;;;;;4.89;100.00;92029.97;2124082;27;20448;-81
2024/02/27 03:18:24;;;;;;;0.43;0.40;;;;;;;4.91;100.00;92032.19;2120328;28;20020;-80
2024/02/27 03:19:26;;;;;;;0.40;0.40;;;;;;;4.85;100.00;92034.56;2105559;28;20085;-81
2024/02/27 03:20:27;;;;;;;0.40;0.40;;;;;;;4.86;100.00;92032.66;2120244;27;20031;-81
2024/02/27 03:21:32;;;;;;;0.55;0.55;;;;;;;4.86;100.00;92030.00;2121551;28;20031;-81
2024/02/27 03:22:33;;;;;;;0.40;0.40;;;;;;;4.87;100.00;92024.31;2113647;27;20023;-82
2024/02/27 03:23:34;;;;;;;0.50;0.50;;;;;;;4.93;100.00;92030.63;2114391;28;20023;-80
2024/02/27 03:24:44;;;;;;;0.50;0.50;;;;;;;4.99;100.00;92033.56;2113401;28;20019;-80
2024/02/27 03:25:45;;;;;;;;;;;;;;;4.96;100.00;92029.84;2113222;28;20028;-80
2024/02/27 03:26:46;;;;;;;0.50;0.50;;;;;;;4.96;100.00;92035.13;2107618;28;19916;-81
2024/02/27 03:27:48;;;;;;;0.47;0.47;;;;;;;4.89;100.00;92031.84;2099914;28;20429;-81
2024/02/27 03:28:49;;;;;;;0.40;0.40;;;;;;;4.85;100.00;92034.56;2108565;28;20027;-81
2024/02/27 03:29:50;;;;;;;0.50;0.50;;;;;;;4.89;100.00;92027.31;2114075;28;20053;-80
2024/02/27 03:30:51;;;;;;;0.57;0.57;;;;;;;4.85;100.00;92036.47;2114830;28;20027;-80
2024/02/27 03:31:52;;;;;;;0.50;0.50;;;;;;;4.78;100.00;92037.31;2106146;28;20565;-81
2024/02/27 03:32:53;;;;;;;0.60;0.60;;;;;;;4.82;100.00;92037.28;2106041;28;20059;-80
2024/02/27 03:33:54;;;;;;;0.50;0.50;;;;;;;4.81;100.00;92039.16;2105804;28;20464;-81
2024/02/27 03:34:55;;;;;;;0.50;0.50;;;;;;;4.84;100.00;92042.91;2106045;28;20028;-80
2024/02/27 03:35:56;;;;;;;0.43;0.40;;;;;;;4.81;100.00;92041.81;2114324;28;20039;-81
2024/02/27 03:36:57;;;;;;;0.40;0.40;;;;;;;4.89;100.00;92031.84;2114338;28;20023;-81
2024/02/27 03:37:58;;;;;;;0.50;0.50;;;;;;;4.84;100.00;92030.44;2110221;28;20020;-79
2024/02/27 03:38:59;;;;;;;0.40;0.40;;;;;;;4.86;100.00;92030.00;2114266;27;20023;-80
2024/02/27 03:39:59;;;;;;;0.80;0.52;;;;;;;4.78;100.00;92022.22;2117365;28;20114;-80
2024/02/27 03:41:00;;;;;;;0.50;0.50;;;;;;;4.75;100.00;92027.56;2117139;28;20028;-81
2024/02/27 03:42:01;;;;;;;0.73;0.50;;;;;;;4.80;100.00;92027.84;2125714;27;20740;-80
2024/02/27 03:43:02;;;;;;;0.40;0.40;;;;;;;4.87;100.00;92026.94;2117259;28;20034;-80
2024/02/27 03:44:03;;;;;;;0.40;0.40;;;;;;;4.86;100.00;92036.06;2108523;28;20113;-80
2024/02/27 03:45:05;;;;;;;0.47;0.40;;;;;;;4.89;100.00;92042.44;2100298;28;20035;-80
2024/02/27 03:46:06;;;;;;;0.40;0.40;;;;;;;4.89;100.00;92043.19;2100638;27;20040;-80
2024/02/27 03:47:09;;;;;;;0.40;0.40;;;;;;;4.98;100.00;92050.59;2109081;28;20028;-81
2024/02/27 03:48:10;;;;;;;0.43;0.40;;;;;;;4.86;100.00;92048.53;2100209;28;20028;-80
2024/02/27 03:49:11;;;;;;;0.40;0.40;;;;;;;4.85;100.00;92058.38;2099836;28;20025;-81
2024/02/27 03:50:12;;;;;;;0.50;0.50;;;;;;;4.92;100.00;92054.88;2116584;28;20028;-80
2024/02/27 03:51:13;;;;;;;0.40;0.40;;;;;;;4.92;100.00;92054.88;2120237;27;20019;-81
2024/02/27 03:52:14;;;;;;;0.40;0.40;;;;;;;4.83;100.00;92054.66;2125148;27;20023;-81
2024/02/27 03:53:15;;;;;;;0.47;0.40;;;;;;;4.90;100.00;92049.97;2116580;28;20023;-82
2024/02/27 03:54:16;;;;;;;0.52;0.52;;;;;;;4.95;100.00;92044.22;2115282;28;20031;-81
2024/02/27 03:55:17;;;;;;;1.02;0.40;;;;;;;4.92;100.00;92042.38;2108227;28;20031;-80
2024/02/27 03:56:18;;;;;;;0.40;0.40;;;;;;;5.14;100.00;92044.66;2122267;27;20027;-81
2024/02/27 03:57:18;;;;;;;0.50;0.50;;;;;;;5.05;100.00;92040.63;2118707;27;20074;-80
2024/02/27 03:58:19;;;;;;;0.40;0.40;;;;;;;5.00;100.00;92038.47;2111622;27;20023;-80
2024/02/27 03:59:20;;;;;;;1.63;0.40;;;;;;;4.98;100.00;92045.31;2116551;28;20028;-80
2024/02/27 04:00:22;;;;;;;0.40;0.40;;;;;;;4.97;100.00;92043.81;2116612;28;20024;-82
2024/02/27 04:01:23;;;;;;;0.40;0.40;;;;;;;4.98;100.00;92054.00;2116245;28;20105;-81
2024/02/27 04:02:24;;;;;;;0.40;0.40;;;;;;;4.91;100.00;92056.75;2108783;28;20031;-80
2024/02/27 04:03:25;;;;;;;0.40;0.40;;;;;;;4.94;100.00;92066.56;2107664;28;20024;-81
2024/02/27 04:04:25;;;;;;;0.40;0.40;;;;;;;4.93;100.00;92064.31;2108039;28;20020;-80
2024/02/27 04:05:26;;;;;;;0.40;0.40;;;;;;;4.90;100.00;92065.88;2107886;28;20023;-81
2024/02/27 04:06:27;;;;;;;1.00;0.50;;;;;;;4.99;100.00;92074.03;2116177;28;20051;-81
2024/02/27 04:07:28;;;;;;;0.40;0.40;;;;;;;4.97;100.00;92075.59;2116363;28;20031;-79
2024/02/27 04:08:29;;;;;;;0.40;0.40;;;;;;;5.03;100.00;92077.34;2108207;28;20035;-81
2024/02/27 04:09:30;;;;;;;0.40;0.40;;;;;;;5.03;100.00;92079.25;2116172;28;20028;-81
2024/02/27 04:10:31;;;;;;;0.40;0.40;;;;;;;5.04;100.00;92080.75;2107769;28;20063;-80
2024/02/27 04:11:32;;;;;;;1.38;0.40;;;;;;;5.05;100.00;92076.97;2099175;28;20028;-81
2024/02/27 04:12:34;;;;;;;0.50;0.50;;;;;;;4.98;100.00;92085.03;2107460;28;20111;-80
2024/02/27 04:13:34;;;;;;;0.40;0.40;;;;;;;4.97;100.00;92081.63;2099013;28;20120;-81
2024/02/27 04:14:35;;;;;;;0.40;0.40;;;;;;;5.03;100.00;92085.31;2107598;28;20404;-80
2024/02/27 04:15:36;;;;;;;0.40;0.40;;;;;;;5.04;100.00;92086.03;2115363;27;20073;-80
2024/02/27 04:16:39;;;;;;;0.40;0.40;;;;;;;5.09;100.00;92090.13;2116425;27;20154;-81
2024/02/27 04:17:40;;;;;;;0.60;0.60;;;;;;;5.09;100.00;92092.78;2108566;28;20078;-80
2024/02/27 04:18:41;;;;;;;0.50;0.50;;;;;;;5.17;100.00;92086.19;2062163;28;20068;-80
2024/02/27 04:19:43;;;;;;;0.57;0.50;;;;;;;5.01;100.00;92086.88;2039098;28;20150;-80
2024/02/27 04:20:44;;;;;;;0.43;0.43;;;;;;;5.09;100.00;92087.47;2059313;27;20038;-81
2024/02/27 04:21:45;;;;;;;0.50;0.50;;;;;;;5.10;100.00;92076.50;2052697;28;20067;-79
2024/02/27 04:22:46;;;;;;;0.40;0.40;;;;;;;5.13;100.00;92077.56;2044796;28;20135;-80
2024/02/27 04:23:47;;;;;;;0.40;0.40;;;;;;;4.99;100.00;92079.31;2060381;28;20049;-80
2024/02/27 04:24:48;;;;;;;0.38;0.38;;;;;;;5.15;100.00;92078.66;2078654;27;20141;-80
2024/02/27 04:25:49;;;;;;;0.43;0.43;;;;;;;5.14;100.00;92074.53;2075024;27;20375;-81
2024/02/27 04:26:50;;;;;;;0.50;0.50;;;;;;;5.19;100.00;92075.97;2069796;28;20449;-80
2024/02/27 04:27:51;;;;;;;0.40;0.40;;;;;;;5.23;100.00;92079.28;2083451;28;20024;-81
2024/02/27 04:28:52;;;;;;;0.40;0.40;;;;;;;5.18;100.00;92075.22;2084436;28;20174;-82
2024/02/27 04:29:53;;;;;;;0.40;0.40;;;;;;;5.10;100.00;92081.78;2092457;27;20114;-79
2024/02/27 04:30:54;;;;;;;0.40;0.40;;;;;;;4.99;100.00;92071.38;2097386;27;20314;-81
2024/02/27 04:31:55;;;;;;;0.63;0.50;;;;;;;5.02;100.00;92067.91;2093795;28;20035;-80
2024/02/27 04:32:55;;;;;;;0.85;0.40;;;;;;;5.02;100.00;92070.56;2097421;28;20023;-81
2024/02/27 04:33:57;;;;;;;0.40;0.40;;;;;;;4.99;100.00;92074.03;2090986;28;20055;-80
2024/02/27 04:34:58;;;;;;;0.50;0.50;;;;;;;4.96;100.00;92074.84;2077905;28;20025;-80
2024/02/27 04:35:59;;;;;;;0.40;0.40;;;;;;;4.88;100.00;92081.41;2098804;28;20073;-81
2024/02/27 04:37:00;;;;;;;0.40;0.40;;;;;;;4.98;100.00;92082.38;2108621;28;20148;-81
2024/02/27 04:38:02;;;;;;;0.40;0.40;;;;;;;4.94;100.00;92082.44;2099764;28;20097;-81
2024/02/27 04:39:04;;;;;;;0.50;0.50;;;;;;;4.90;100.00;92089.69;2098480;28;20028;-80
2024/02/27 04:40:05;;;;;;;0.60;0.47;;;;;;;5.13;100.00;92086.25;2106790;28;20028;-80
2024/02/27 04:41:06;;;;;;;0.50;0.50;;;;;;;5.11;100.00;92101.81;2106851;28;20027;-82
2024/02/27 04:42:07;;;;;;;0.50;0.50;;;;;;;5.12;100.00;92086.69;2115084;28;20027;-80
2024/02/27 04:43:08;;;;;;;0.40;0.40;;;;;;;5.13;100.00;92093.47;2115274;28;20480;-81
2024/02/27 04:44:10;;;;;;;0.40;0.40;;;;;;;5.19;100.00;92100.53;2106561;28;20110;-82
2024/02/27 04:45:11;;;;;;;0.40;0.40;;;;;;;5.23;100.00;92109.19;2115098;28;20518;-80
2024/02/27 04:46:12;;;;;;;0.50;0.50;;;;;;;5.19;100.00;92107.75;2106600;28;20120;-80
2024/02/27 04:47:13;;;;;;;0.50;0.50;;;;;;;5.09;100.00;92112.06;2098466;28;20448;-81
2024/02/27 04:48:14;;;;;;;0.40;0.40;;;;;;;5.10;100.00;92118.13;2106716;28;20031;-81
2024/02/27 04:49:15;;;;;;;0.50;0.50;;;;;;;5.07;100.00;92118.94;2105477;28;20177;-81
2024/02/27 04:50:16;;;;;;;0.50;0.50;;;;;;;5.05;100.00;92124.63;2089982;28;20032;-81
2024/02/27 04:51:28;;;;;;;0.50;0.50;;;;;;;5.02;100.00;92134.13;2096160;28;20059;-81